createdAt,value
2023-03-29T00:07:04.949Z,0
2023-03-29T00:19:04.466Z,0
2023-03-29T00:31:04.642Z,0
2023-03-29T00:43:04.375Z,0
2023-03-29T00:55:04.588Z,0
2023-03-29T01:07:04.550Z,0
2023-03-29T01:19:04.506Z,0
2023-03-29T01:31:04.409Z,0
2023-03-29T01:43:04.609Z,0
2023-03-29T01:55:04.559Z,0
2023-03-29T02:07:04.516Z,0
2023-03-29T02:19:04.648Z,0
2023-03-29T02:31:04.920Z,0
2023-03-29T02:43:04.580Z,0
2023-03-29T02:55:04.579Z,0
2023-03-29T03:07:04.688Z,0
2023-03-29T03:19:04.669Z,0
2023-03-29T03:31:04.584Z,0
2023-03-29T03:43:04.577Z,0
2023-03-29T03:55:04.737Z,0
2023-03-29T04:07:04.687Z,0
2023-03-29T04:19:04.613Z,0
2023-03-29T04:31:04.944Z,0
2023-03-29T04:43:04.744Z,0
2023-03-29T04:55:04.746Z,0
2023-03-29T05:07:04.652Z,0
2023-03-29T05:19:04.843Z,1
2023-03-29T05:31:05.015Z,4
2023-03-29T05:43:04.754Z,1
2023-03-29T05:55:04.693Z,1
2023-03-29T06:07:04.859Z,3
2023-03-29T06:19:04.785Z,0
2023-03-29T06:31:04.895Z,3
2023-03-29T06:43:04.906Z,4
2023-03-29T06:55:04.927Z,0
2023-03-29T07:07:04.819Z,1
2023-03-29T07:19:04.809Z,1
2023-03-29T07:31:05.019Z,0
2023-03-29T07:43:04.919Z,0
2023-03-29T07:55:04.877Z,3
2023-03-29T08:07:04.832Z,3
2023-03-29T08:19:04.965Z,2
2023-03-29T08:31:05.076Z,1
2023-03-29T08:43:04.886Z,2
2023-03-29T08:55:05.126Z,1
2023-03-29T09:07:04.989Z,7
2023-03-29T09:19:04.977Z,1
2023-03-29T09:31:05.158Z,6
2023-03-29T09:43:05.124Z,4
2023-03-29T09:55:05.071Z,8
2023-03-29T10:07:05.018Z,8
2023-03-29T10:19:05.081Z,3
2023-03-29T10:31:05.463Z,3
2023-03-29T10:43:05.082Z,9
2023-03-29T10:55:05.161Z,16
2023-03-29T11:07:05.820Z,9
2023-03-29T11:19:05.204Z,19
2023-03-29T11:31:05.677Z,10
2023-03-29T11:43:05.238Z,16
2023-03-29T11:55:05.238Z,14
2023-03-29T12:07:05.229Z,16
2023-03-29T12:19:05.113Z,6
2023-03-29T12:31:05.310Z,17
2023-03-29T12:43:05.236Z,8
2023-03-29T12:55:05.258Z,9
2023-03-29T13:07:05.162Z,9
2023-03-29T13:19:05.356Z,8
2023-03-29T13:31:05.312Z,6
2023-03-29T13:43:05.277Z,8
2023-03-29T13:55:05.222Z,5
2023-03-29T14:07:05.423Z,9
2023-03-29T14:19:05.296Z,7
2023-03-29T14:31:05.295Z,8
2023-03-29T14:43:05.236Z,2
2023-03-29T14:55:05.433Z,8
2023-03-29T15:07:05.970Z,11
2023-03-29T15:19:05.318Z,1
2023-03-29T15:31:08.028Z,4
2023-03-29T15:43:05.452Z,11
2023-03-29T15:55:05.400Z,1
2023-03-29T16:07:05.329Z,5
2023-03-29T16:19:05.299Z,8
2023-03-29T16:31:05.534Z,6
2023-03-29T16:43:05.435Z,9
2023-03-29T16:55:05.455Z,8
2023-03-29T17:07:05.457Z,10
2023-03-29T17:19:05.540Z,9
2023-03-29T17:31:05.470Z,6
2023-03-29T17:43:05.548Z,1
2023-03-29T17:55:05.608Z,5
2023-03-29T18:07:05.578Z,2
2023-03-29T18:19:05.503Z,7
2023-03-29T18:31:05.481Z,9
2023-03-29T18:43:05.638Z,3
2023-03-29T18:55:05.635Z,0
2023-03-29T19:07:05.524Z,5
2023-03-29T19:19:05.513Z,6
2023-03-29T19:31:05.760Z,5
2023-03-29T19:43:05.628Z,12
2023-03-29T19:55:05.569Z,0
2023-03-29T20:07:05.729Z,0
2023-03-29T20:19:05.657Z,0
2023-03-29T20:31:05.901Z,2
2023-03-29T20:43:05.567Z,0
2023-03-29T20:55:05.806Z,7
2023-03-29T21:07:05.740Z,0
2023-03-29T21:19:05.793Z,0
2023-03-29T21:31:06.108Z,0
2023-03-29T21:43:05.792Z,0
2023-03-29T21:55:05.747Z,2
2023-03-29T22:07:05.728Z,0
2023-03-29T22:19:05.841Z,8
2023-03-29T22:31:05.883Z,3
2023-03-29T22:43:05.758Z,2
2023-03-29T22:55:05.768Z,0
2023-03-29T23:07:05.864Z,0
2023-03-29T23:19:05.841Z,0
2023-03-29T23:31:06.032Z,0
2023-03-29T23:43:05.781Z,0
2023-03-29T23:55:06.231Z,0
